createdAt,value
2023-07-19T00:00:13.604Z,15.40
2023-07-19T00:01:13.591Z,16.37
2023-07-19T00:02:13.719Z,14.93
2023-07-19T00:03:13.572Z,13.96
2023-07-19T00:04:13.614Z,14.77
2023-07-19T00:05:13.551Z,14.85
2023-07-19T00:06:13.575Z,15.40
2023-07-19T00:07:13.554Z,13.88
2023-07-19T00:08:13.519Z,15.17
2023-07-19T00:09:13.508Z,15.17
2023-07-19T00:10:13.511Z,14.28
2023-07-19T00:11:13.515Z,15.40
2023-07-19T00:12:13.493Z,15.32
2023-07-19T00:13:13.468Z,13.64
2023-07-19T00:14:13.463Z,14.85
2023-07-19T00:15:13.447Z,15.65
2023-07-19T00:16:13.464Z,15.32
2023-07-19T00:17:13.429Z,15.50
2023-07-19T00:18:13.418Z,14.85
2023-07-19T00:19:20.864Z,15.25
2023-07-19T00:20:14.426Z,14.13
2023-07-19T00:21:13.384Z,15.09
2023-07-19T00:22:13.398Z,15.17
2023-07-19T00:23:13.483Z,14.77
2023-07-19T00:24:13.388Z,15.01
2023-07-19T00:25:13.346Z,15.01
2023-07-19T00:26:13.333Z,15.01
2023-07-19T00:27:13.348Z,15.09
2023-07-19T00:28:13.321Z,15.50
2023-07-19T00:29:13.303Z,15.17
2023-07-19T00:30:13.294Z,14.44
2023-07-19T00:31:13.289Z,15.17
2023-07-19T00:32:13.271Z,14.85
2023-07-19T00:33:13.281Z,15.17
2023-07-19T00:34:13.311Z,14.93
2023-07-19T00:35:13.253Z,14.52
2023-07-19T00:36:13.256Z,15.01
2023-07-19T00:37:13.216Z,14.68
2023-07-19T00:38:13.231Z,14.68
2023-07-19T00:39:13.269Z,13.96
2023-07-19T00:40:13.214Z,15.73
2023-07-19T00:41:13.176Z,15.40
2023-07-19T00:42:13.174Z,14.60
2023-07-19T00:43:13.164Z,14.77
2023-07-19T00:44:13.147Z,13.88
2023-07-19T00:45:13.137Z,14.52
2023-07-19T00:46:13.171Z,15.32
2023-07-19T00:47:13.113Z,15.32
2023-07-19T00:48:13.160Z,14.68
2023-07-19T00:49:13.094Z,14.77
2023-07-19T00:50:13.089Z,14.60
2023-07-19T00:51:13.081Z,16.70
2023-07-19T00:52:13.063Z,15.65
2023-07-19T00:53:13.067Z,14.28
2023-07-19T00:54:13.070Z,14.85
2023-07-19T00:55:13.033Z,14.36
2023-07-19T00:56:13.024Z,14.85
2023-07-19T00:57:13.011Z,14.85
2023-07-19T00:58:13.036Z,14.36
2023-07-19T00:59:12.995Z,15.09
2023-07-19T01:00:13.001Z,14.44
2023-07-19T01:01:13.048Z,13.80
2023-07-19T01:02:14.909Z,14.44
2023-07-19T01:03:12.950Z,14.68
2023-07-19T01:04:12.944Z,13.56
2023-07-19T01:05:13.007Z,14.93
2023-07-19T01:06:12.925Z,14.52
2023-07-19T01:07:12.923Z,14.13
2023-07-19T01:08:12.905Z,15.57
2023-07-19T01:09:12.891Z,14.28
2023-07-19T01:10:12.901Z,14.68
2023-07-19T01:11:12.866Z,14.68
2023-07-19T01:12:12.858Z,14.28
2023-07-19T01:13:12.906Z,13.07
2023-07-19T01:14:12.842Z,15.25
2023-07-19T01:15:12.841Z,14.77
2023-07-19T01:16:12.851Z,13.72
2023-07-19T01:17:12.806Z,14.44
2023-07-19T01:18:12.809Z,14.68
2023-07-19T01:19:12.799Z,14.68
2023-07-19T01:20:12.783Z,15.01
2023-07-19T01:21:22.761Z,15.57
2023-07-19T01:22:13.790Z,14.44
2023-07-19T01:23:12.872Z,14.13
2023-07-19T01:24:12.743Z,14.68
2023-07-19T01:25:12.728Z,14.68
2023-07-19T01:26:12.735Z,14.36
2023-07-19T01:27:22.432Z,14.36
2023-07-19T01:28:13.755Z,13.15
2023-07-19T01:29:12.686Z,14.77
2023-07-19T01:30:12.676Z,13.07
2023-07-19T01:31:12.692Z,14.21
2023-07-19T01:32:12.665Z,14.68
2023-07-19T01:33:23.824Z,15.09
2023-07-19T01:34:13.661Z,13.72
2023-07-19T01:35:12.622Z,14.68
2023-07-19T01:36:12.675Z,15.25
2023-07-19T01:37:12.600Z,13.96
2023-07-19T01:38:12.608Z,13.23
2023-07-19T01:39:12.579Z,14.85
2023-07-19T01:40:12.636Z,14.77
2023-07-19T01:41:12.568Z,14.28
2023-07-19T01:42:12.569Z,14.05
2023-07-19T01:43:12.539Z,13.15
2023-07-19T01:44:12.527Z,15.09
2023-07-19T01:45:12.526Z,14.60
2023-07-19T01:46:12.551Z,15.09
2023-07-19T01:47:12.494Z,15.50
2023-07-19T01:48:12.488Z,14.77
2023-07-19T01:49:12.470Z,14.68
2023-07-19T01:50:12.500Z,14.93
2023-07-19T01:51:12.454Z,13.31
2023-07-19T01:52:12.455Z,15.50
2023-07-19T01:53:12.436Z,14.36
2023-07-19T01:54:12.422Z,14.77
2023-07-19T01:55:12.411Z,13.56
2023-07-19T01:56:12.411Z,13.88
2023-07-19T01:57:12.387Z,14.44
2023-07-19T01:58:12.415Z,14.60
2023-07-19T01:59:12.373Z,14.36
2023-07-19T02:00:12.359Z,13.47
2023-07-19T02:01:12.391Z,14.77
2023-07-19T02:02:12.427Z,14.52
2023-07-19T02:03:12.663Z,14.13
2023-07-19T02:04:12.352Z,15.32
2023-07-19T02:05:12.306Z,14.85
2023-07-19T02:06:12.298Z,14.44
2023-07-19T02:07:12.287Z,14.68
2023-07-19T02:08:12.274Z,12.76
2023-07-19T02:09:12.266Z,14.52
2023-07-19T02:10:12.254Z,15.01
2023-07-19T02:11:12.282Z,15.50
2023-07-19T02:12:12.241Z,14.68
2023-07-19T02:13:12.220Z,14.36
2023-07-19T02:14:12.237Z,14.85
2023-07-19T02:15:12.205Z,15.09
2023-07-19T02:16:12.229Z,14.28
2023-07-19T02:17:12.179Z,14.77
2023-07-19T02:18:12.172Z,15.32
2023-07-19T02:19:12.163Z,14.77
2023-07-19T02:20:12.151Z,14.77
2023-07-19T02:21:12.145Z,13.64
2023-07-19T02:22:12.132Z,14.36
2023-07-19T02:23:12.236Z,14.60
2023-07-19T02:24:12.107Z,12.76
2023-07-19T02:25:12.095Z,15.01
2023-07-19T02:26:12.084Z,14.68
2023-07-19T02:27:12.076Z,14.36
2023-07-19T02:28:12.086Z,13.39
2023-07-19T02:29:12.054Z,15.57
2023-07-19T02:30:12.069Z,14.52
2023-07-19T02:31:12.094Z,15.09
2023-07-19T02:32:12.024Z,14.21
2023-07-19T02:33:12.011Z,14.05
2023-07-19T02:34:12.015Z,12.92
2023-07-19T02:35:12.016Z,14.85
2023-07-19T02:36:11.980Z,14.60
2023-07-19T02:37:11.972Z,14.21
2023-07-19T02:38:11.973Z,14.05
2023-07-19T02:39:11.957Z,14.77
2023-07-19T02:40:11.938Z,14.13
2023-07-19T02:41:11.929Z,14.44
2023-07-19T02:42:11.918Z,14.85
2023-07-19T02:43:11.920Z,15.09
2023-07-19T02:44:11.899Z,14.36
2023-07-19T02:45:11.884Z,13.39
2023-07-19T02:46:11.949Z,14.68
2023-07-19T02:47:11.866Z,14.21
2023-07-19T02:48:11.881Z,14.28
2023-07-19T02:49:11.849Z,14.13
2023-07-19T02:50:11.848Z,14.93
2023-07-19T02:51:11.831Z,14.05
2023-07-19T02:52:11.821Z,14.05
2023-07-19T02:53:11.803Z,15.40
2023-07-19T02:54:11.794Z,13.72
2023-07-19T02:55:11.781Z,14.13
2023-07-19T02:56:11.776Z,14.68
2023-07-19T02:57:11.792Z,14.36
2023-07-19T02:58:11.756Z,14.52
2023-07-19T02:59:11.746Z,15.09
2023-07-19T03:00:11.731Z,13.47
2023-07-19T03:01:11.746Z,14.60
2023-07-19T03:02:11.867Z,14.21
2023-07-19T03:03:11.795Z,14.28
2023-07-19T03:04:11.692Z,14.21
2023-07-19T03:05:11.681Z,14.21
2023-07-19T03:06:11.676Z,13.72
2023-07-19T03:07:11.662Z,14.21
2023-07-19T03:08:11.659Z,13.31
2023-07-19T03:09:11.640Z,14.60
2023-07-19T03:10:11.704Z,14.28
2023-07-19T03:11:11.619Z,15.01
2023-07-19T03:12:11.610Z,14.93
2023-07-19T03:13:11.599Z,12.92
2023-07-19T03:14:11.591Z,14.68
2023-07-19T03:15:11.579Z,16.78
2023-07-19T03:16:11.611Z,13.31
2023-07-19T03:17:11.559Z,14.44
2023-07-19T03:18:11.568Z,14.60
2023-07-19T03:19:14.033Z,13.64
2023-07-19T03:20:11.533Z,12.84
2023-07-19T03:21:11.529Z,14.05
2023-07-19T03:22:11.508Z,13.64
2023-07-19T03:23:11.522Z,13.56
2023-07-19T03:24:11.489Z,13.39
2023-07-19T03:25:11.477Z,14.21
2023-07-19T03:26:11.494Z,14.77
2023-07-19T03:27:11.454Z,14.44
2023-07-19T03:28:11.445Z,13.80
2023-07-19T03:29:11.433Z,14.05
2023-07-19T03:30:11.420Z,13.96
2023-07-19T03:31:11.480Z,14.85
2023-07-19T03:32:11.404Z,14.77
2023-07-19T03:33:11.392Z,13.80
2023-07-19T03:34:11.436Z,12.51
2023-07-19T03:35:11.374Z,14.44
2023-07-19T03:36:11.361Z,14.05
2023-07-19T03:37:11.366Z,12.51
2023-07-19T03:38:11.340Z,14.13
2023-07-19T03:39:11.330Z,13.96
2023-07-19T03:40:11.319Z,14.21
2023-07-19T03:41:11.308Z,14.60
2023-07-19T03:42:11.296Z,13.96
2023-07-19T03:43:11.286Z,15.09
2023-07-19T03:44:11.277Z,14.21
2023-07-19T03:45:11.292Z,13.72
2023-07-19T03:46:11.278Z,15.32
2023-07-19T03:47:11.252Z,13.88
2023-07-19T03:48:11.243Z,15.57
2023-07-19T03:49:11.237Z,15.09
2023-07-19T03:50:11.242Z,14.21
2023-07-19T03:51:11.206Z,14.68
2023-07-19T03:52:11.201Z,13.31
2023-07-19T03:53:11.187Z,15.17
2023-07-19T03:54:11.168Z,14.52
2023-07-19T03:55:11.161Z,13.00
2023-07-19T03:56:11.150Z,15.25
2023-07-19T03:57:11.141Z,13.80
2023-07-19T03:58:11.133Z,13.31
2023-07-19T03:59:11.124Z,13.80
2023-07-19T04:00:11.129Z,13.31
2023-07-19T04:01:11.101Z,12.76
2023-07-19T04:02:11.253Z,15.01
2023-07-19T04:03:11.092Z,14.52
2023-07-19T04:04:11.105Z,15.81
2023-07-19T04:05:11.066Z,14.44
2023-07-19T04:06:11.087Z,15.65
2023-07-19T04:07:11.040Z,13.47
2023-07-19T04:08:11.089Z,13.96
2023-07-19T04:09:11.018Z,15.25
2023-07-19T04:10:11.082Z,13.96
2023-07-19T04:11:10.994Z,14.60
2023-07-19T04:12:10.989Z,14.77
2023-07-19T04:13:10.982Z,14.68
2023-07-19T04:14:10.978Z,14.60
2023-07-19T04:15:10.968Z,15.50
2023-07-19T04:16:10.964Z,14.44
2023-07-19T04:17:10.939Z,14.52
2023-07-19T04:18:10.971Z,14.85
2023-07-19T04:19:10.932Z,14.77
2023-07-19T04:20:10.906Z,14.52
2023-07-19T04:21:10.908Z,13.96
2023-07-19T04:22:10.972Z,15.09
2023-07-19T04:23:11.000Z,14.68
2023-07-19T04:24:10.866Z,13.31
2023-07-19T04:25:10.874Z,14.28
2023-07-19T04:26:10.845Z,14.68
2023-07-19T04:27:10.889Z,13.64
2023-07-19T04:28:10.820Z,14.68
2023-07-19T04:29:10.815Z,13.96
2023-07-19T04:30:10.804Z,14.52
2023-07-19T04:31:10.795Z,14.77
2023-07-19T04:32:10.791Z,14.13
2023-07-19T04:33:10.923Z,13.64
2023-07-19T04:34:10.766Z,13.15
2023-07-19T04:35:10.760Z,14.36
2023-07-19T04:36:10.749Z,12.84
2023-07-19T04:37:10.734Z,14.21
2023-07-19T04:38:10.744Z,14.85
2023-07-19T04:39:10.706Z,14.93
2023-07-19T04:40:10.738Z,15.01
2023-07-19T04:41:10.697Z,14.13
2023-07-19T04:42:10.689Z,13.56
2023-07-19T04:43:10.660Z,14.52
2023-07-19T04:44:10.656Z,14.21
2023-07-19T04:45:10.662Z,14.68
2023-07-19T04:46:10.652Z,14.05
2023-07-19T04:47:10.620Z,14.44
2023-07-19T04:48:10.632Z,14.28
2023-07-19T04:49:10.598Z,13.80
2023-07-19T04:50:10.626Z,14.28
2023-07-19T04:51:10.590Z,13.56
2023-07-19T04:52:10.568Z,12.92
2023-07-19T04:53:10.566Z,13.00
2023-07-19T04:54:10.568Z,15.57
2023-07-19T04:55:10.537Z,13.96
2023-07-19T04:56:10.542Z,13.64
2023-07-19T04:57:10.516Z,13.96
2023-07-19T04:58:10.509Z,14.05
2023-07-19T04:59:10.501Z,13.72
2023-07-19T05:00:10.487Z,13.80
2023-07-19T05:01:10.577Z,14.60
2023-07-19T05:02:10.470Z,15.01
2023-07-19T05:03:10.498Z,14.77
2023-07-19T05:04:10.451Z,15.32
2023-07-19T05:05:10.459Z,13.15
2023-07-19T05:06:10.428Z,13.39
2023-07-19T05:07:10.414Z,14.13
2023-07-19T05:08:10.401Z,14.60
2023-07-19T05:09:10.424Z,12.18
2023-07-19T05:10:10.400Z,13.39
2023-07-19T05:11:10.372Z,13.56
2023-07-19T05:12:10.362Z,14.60
2023-07-19T05:13:10.353Z,14.44
2023-07-19T05:14:10.337Z,13.56
2023-07-19T05:15:10.330Z,13.88
2023-07-19T05:16:10.319Z,14.21
2023-07-19T05:17:10.332Z,14.44
2023-07-19T05:18:10.390Z,13.88
2023-07-19T05:19:10.290Z,13.56
2023-07-19T05:20:10.278Z,14.28
2023-07-19T05:21:10.271Z,14.36
2023-07-19T05:22:10.259Z,14.21
2023-07-19T05:23:10.518Z,13.96
2023-07-19T05:24:10.260Z,14.21
2023-07-19T05:25:10.226Z,14.68
2023-07-19T05:26:10.250Z,14.93
2023-07-19T05:27:10.225Z,14.85
2023-07-19T05:28:10.194Z,15.09
2023-07-19T05:29:10.186Z,15.50
2023-07-19T05:30:10.174Z,14.93
2023-07-19T05:31:10.193Z,14.60
2023-07-19T05:32:10.151Z,14.13
2023-07-19T05:33:10.177Z,14.52
2023-07-19T05:34:10.154Z,13.07
2023-07-19T05:35:10.124Z,13.96
2023-07-19T05:36:10.119Z,14.85
2023-07-19T05:37:10.121Z,14.93
2023-07-19T05:38:10.097Z,13.88
2023-07-19T05:39:10.080Z,15.73
2023-07-19T05:40:10.071Z,14.52
2023-07-19T05:41:10.063Z,15.01
2023-07-19T05:42:10.073Z,14.52
2023-07-19T05:43:10.051Z,13.88
2023-07-19T05:44:12.595Z,14.85
2023-07-19T05:45:10.041Z,14.36
2023-07-19T05:46:10.086Z,14.60
2023-07-19T05:47:09.998Z,13.96
2023-07-19T05:48:10.018Z,15.25
2023-07-19T05:49:10.003Z,14.05
2023-07-19T05:50:09.974Z,14.28
2023-07-19T05:51:09.957Z,15.32
2023-07-19T05:52:09.953Z,14.05
2023-07-19T05:53:09.937Z,14.93
2023-07-19T05:54:09.921Z,14.05
2023-07-19T05:55:09.914Z,14.21
2023-07-19T05:56:09.902Z,15.81
2023-07-19T05:57:09.893Z,13.56
2023-07-19T05:58:09.904Z,14.85
2023-07-19T05:59:09.872Z,14.05
2023-07-19T06:00:19.463Z,15.32
2023-07-19T06:01:10.969Z,14.28
2023-07-19T06:02:09.984Z,13.47
2023-07-19T06:03:09.935Z,14.36
2023-07-19T06:04:09.919Z,13.88
2023-07-19T06:05:09.807Z,15.01
2023-07-19T06:06:09.797Z,13.80
2023-07-19T06:07:09.785Z,14.21
2023-07-19T06:08:22.438Z,14.44
2023-07-19T06:09:10.791Z,14.60
2023-07-19T06:10:09.752Z,14.44
2023-07-19T06:11:09.745Z,14.68
2023-07-19T06:12:09.730Z,14.52
2023-07-19T06:13:09.724Z,14.60
2023-07-19T06:14:09.728Z,15.57
2023-07-19T06:15:11.142Z,13.23
2023-07-19T06:16:09.729Z,14.77
2023-07-19T06:17:09.686Z,14.13
2023-07-19T06:18:09.743Z,14.85
2023-07-19T06:19:09.663Z,13.80
2023-07-19T06:20:09.653Z,14.28
2023-07-19T06:21:09.636Z,14.93
2023-07-19T06:22:09.629Z,13.88
2023-07-19T06:23:09.729Z,15.32
2023-07-19T06:24:09.672Z,14.77
2023-07-19T06:25:09.606Z,15.25
2023-07-19T06:26:09.609Z,14.85
2023-07-19T06:27:09.579Z,15.50
2023-07-19T06:28:09.569Z,15.09
2023-07-19T06:29:09.568Z,14.44
2023-07-19T06:30:09.571Z,14.60
2023-07-19T06:31:09.586Z,15.01
2023-07-19T06:32:09.524Z,14.21
2023-07-19T06:33:09.578Z,15.09
2023-07-19T06:34:09.505Z,16.70
2023-07-19T06:35:09.494Z,14.85
2023-07-19T06:36:09.489Z,14.77
2023-07-19T06:37:09.472Z,15.89
2023-07-19T06:38:09.492Z,14.60
2023-07-19T06:39:09.473Z,13.72
2023-07-19T06:40:09.456Z,13.88
2023-07-19T06:41:09.457Z,14.05
2023-07-19T06:42:09.426Z,15.09
2023-07-19T06:43:09.408Z,13.23
2023-07-19T06:44:09.397Z,15.50
2023-07-19T06:45:09.388Z,14.28
2023-07-19T06:46:11.356Z,15.32
2023-07-19T06:47:09.553Z,15.25
2023-07-19T06:48:09.446Z,16.13
2023-07-19T06:49:09.366Z,15.32
2023-07-19T06:50:09.348Z,14.28
2023-07-19T06:51:09.331Z,17.27
2023-07-19T06:52:09.336Z,14.85
2023-07-19T06:53:09.318Z,14.60
2023-07-19T06:54:15.510Z,15.57
2023-07-19T06:55:10.319Z,15.73
2023-07-19T06:56:09.278Z,16.70
2023-07-19T06:57:09.269Z,14.60
2023-07-19T06:58:09.263Z,14.93
2023-07-19T06:59:09.247Z,15.17
2023-07-19T07:00:09.233Z,13.96
2023-07-19T07:01:09.291Z,15.17
2023-07-19T07:02:09.391Z,15.65
2023-07-19T07:03:09.363Z,15.01
2023-07-19T07:04:09.252Z,15.65
2023-07-19T07:05:09.192Z,14.05
2023-07-19T07:06:09.173Z,14.36
2023-07-19T07:07:09.162Z,15.81
2023-07-19T07:08:09.150Z,16.29
2023-07-19T07:09:09.143Z,15.17
2023-07-19T07:10:09.130Z,14.77
2023-07-19T07:11:09.119Z,15.57
2023-07-19T07:12:09.113Z,15.50
2023-07-19T07:13:09.100Z,14.60
2023-07-19T07:14:09.085Z,14.85
2023-07-19T07:15:09.082Z,14.85
2023-07-19T07:16:09.066Z,15.25
2023-07-19T07:17:09.362Z,16.13
2023-07-19T07:18:09.106Z,15.40
2023-07-19T07:19:09.032Z,15.32
2023-07-19T07:20:09.030Z,15.65
2023-07-19T07:21:09.027Z,15.81
2023-07-19T07:22:09.007Z,14.68
2023-07-19T07:23:09.041Z,15.01
2023-07-19T07:24:08.982Z,16.21
2023-07-19T07:25:08.975Z,15.50
2023-07-19T07:26:08.962Z,15.01
2023-07-19T07:27:08.955Z,15.40
2023-07-19T07:28:08.944Z,15.57
2023-07-19T07:29:08.942Z,15.25
2023-07-19T07:30:08.992Z,15.89
2023-07-19T07:31:08.950Z,15.09
2023-07-19T07:32:08.906Z,16.37
2023-07-19T07:33:08.961Z,15.40
2023-07-19T07:34:08.919Z,15.89
2023-07-19T07:35:08.882Z,15.97
2023-07-19T07:36:08.871Z,14.77
2023-07-19T07:37:08.852Z,15.17
2023-07-19T07:38:08.841Z,15.65
2023-07-19T07:39:08.835Z,15.32
2023-07-19T07:40:08.822Z,16.05
2023-07-19T07:41:08.842Z,15.17
2023-07-19T07:42:08.810Z,15.81
2023-07-19T07:43:08.813Z,15.89
2023-07-19T07:44:08.790Z,15.25
2023-07-19T07:45:08.772Z,15.65
2023-07-19T07:46:08.797Z,15.81
2023-07-19T07:47:08.748Z,13.96
2023-07-19T07:48:08.780Z,15.73
2023-07-19T07:49:10.812Z,15.50
2023-07-19T07:50:11.054Z,15.65
2023-07-19T07:51:08.718Z,14.77
2023-07-19T07:52:08.697Z,15.17
2023-07-19T07:53:13.108Z,15.97
2023-07-19T07:54:08.680Z,15.50
2023-07-19T07:55:08.670Z,16.78
2023-07-19T07:56:08.661Z,15.40
2023-07-19T07:57:08.656Z,15.01
2023-07-19T07:58:08.643Z,15.40
2023-07-19T07:59:08.632Z,15.65
2023-07-19T08:00:08.619Z,15.81
2023-07-19T08:01:08.622Z,15.73
2023-07-19T08:02:08.602Z,15.65
2023-07-19T08:03:08.736Z,15.09
2023-07-19T08:04:10.306Z,15.09
2023-07-19T08:05:08.637Z,15.50
2023-07-19T08:06:08.550Z,14.85
2023-07-19T08:07:08.552Z,15.17
2023-07-19T08:08:08.534Z,15.57
2023-07-19T08:09:08.533Z,15.97
2023-07-19T08:10:08.523Z,14.77
2023-07-19T08:11:08.507Z,14.85
2023-07-19T08:12:08.491Z,15.89
2023-07-19T08:13:08.489Z,15.57
2023-07-19T08:14:08.473Z,16.21
2023-07-19T08:15:08.465Z,15.50
2023-07-19T08:16:08.451Z,15.81
2023-07-19T08:17:08.590Z,15.81
2023-07-19T08:18:08.478Z,15.57
2023-07-19T08:19:08.429Z,16.54
2023-07-19T08:20:08.420Z,15.01
2023-07-19T08:21:13.761Z,15.81
2023-07-19T08:22:09.419Z,14.44
2023-07-19T08:23:08.414Z,15.73
2023-07-19T08:24:08.386Z,16.13
2023-07-19T08:25:24.676Z,15.81
2023-07-19T08:26:09.404Z,13.96
2023-07-19T08:27:08.347Z,16.05
2023-07-19T08:28:08.337Z,15.89
2023-07-19T08:29:08.332Z,15.81
2023-07-19T08:30:08.335Z,16.37
2023-07-19T08:31:08.421Z,17.75
2023-07-19T08:32:08.296Z,16.13
2023-07-19T08:33:08.290Z,16.45
2023-07-19T08:34:08.270Z,16.78
2023-07-19T08:35:08.283Z,15.81
2023-07-19T08:36:08.286Z,15.97
2023-07-19T08:37:08.334Z,15.97
2023-07-19T08:38:08.238Z,15.57
2023-07-19T08:39:08.231Z,17.11
2023-07-19T08:40:08.214Z,16.13
2023-07-19T08:41:08.231Z,16.05
2023-07-19T08:42:08.223Z,16.70
2023-07-19T08:43:08.181Z,15.65
2023-07-19T08:44:08.182Z,16.45
2023-07-19T08:45:08.167Z,15.89
2023-07-19T08:46:08.258Z,16.54
2023-07-19T08:47:08.142Z,16.05
2023-07-19T08:48:08.194Z,15.97
2023-07-19T08:49:08.131Z,16.54
2023-07-19T08:50:08.113Z,16.54
2023-07-19T08:51:08.107Z,15.81
2023-07-19T08:52:08.102Z,16.13
2023-07-19T08:53:08.106Z,16.13
2023-07-19T08:54:08.072Z,15.25
2023-07-19T08:55:08.099Z,17.90
2023-07-19T08:56:08.048Z,14.28
2023-07-19T08:57:08.046Z,15.50
2023-07-19T08:58:08.028Z,16.54
2023-07-19T08:59:08.019Z,16.62
2023-07-19T09:00:08.017Z,16.45
2023-07-19T09:01:08.002Z,16.21
2023-07-19T09:02:08.013Z,15.65
2023-07-19T09:03:08.040Z,16.37
2023-07-19T09:04:08.046Z,16.62
2023-07-19T09:05:07.971Z,16.13
2023-07-19T09:06:07.951Z,14.85
2023-07-19T09:07:07.955Z,15.81
2023-07-19T09:08:07.929Z,15.57
2023-07-19T09:09:07.941Z,16.45
2023-07-19T09:10:07.904Z,16.13
2023-07-19T09:11:07.900Z,16.70
2023-07-19T09:12:07.891Z,15.57
2023-07-19T09:13:07.882Z,15.97
2023-07-19T09:14:07.867Z,16.62
2023-07-19T09:15:07.862Z,17.43
2023-07-19T09:16:08.088Z,16.37
2023-07-19T09:17:07.848Z,16.29
2023-07-19T09:18:08.080Z,16.29
2023-07-19T09:19:07.822Z,17.11
2023-07-19T09:20:07.813Z,17.35
2023-07-19T09:21:07.853Z,16.87
2023-07-19T09:22:07.793Z,13.80
2023-07-19T09:23:07.823Z,16.70
2023-07-19T09:24:07.787Z,16.45
2023-07-19T09:25:07.787Z,16.45
2023-07-19T09:26:07.757Z,16.45
2023-07-19T09:27:07.756Z,17.03
2023-07-19T09:28:07.729Z,15.97
2023-07-19T09:29:07.721Z,16.54
2023-07-19T09:30:07.734Z,16.54
2023-07-19T09:31:23.771Z,16.37
2023-07-19T09:32:08.767Z,16.05
2023-07-19T09:33:07.826Z,16.05
2023-07-19T09:34:07.668Z,15.97
2023-07-19T09:35:07.679Z,16.70
2023-07-19T09:36:07.677Z,16.95
2023-07-19T09:37:07.650Z,16.45
2023-07-19T09:38:07.627Z,16.21
2023-07-19T09:39:07.637Z,15.65
2023-07-19T09:40:07.606Z,15.09
2023-07-19T09:41:07.619Z,16.45
2023-07-19T09:42:07.608Z,16.62
2023-07-19T09:43:07.577Z,16.21
2023-07-19T09:44:07.568Z,16.21
2023-07-19T09:45:07.841Z,16.70
2023-07-19T09:46:07.596Z,16.13
2023-07-19T09:47:22.594Z,16.13
2023-07-19T09:48:08.569Z,16.13
2023-07-19T09:49:07.519Z,16.70
2023-07-19T09:50:07.636Z,16.78
2023-07-19T09:51:07.508Z,15.81
2023-07-19T09:52:07.488Z,16.21
2023-07-19T09:53:07.480Z,16.21
2023-07-19T09:54:07.490Z,16.70
2023-07-19T09:55:07.461Z,16.37
2023-07-19T09:56:07.447Z,16.62
2023-07-19T09:57:07.463Z,19.04
2023-07-19T09:58:07.426Z,17.11
2023-07-19T09:59:07.418Z,16.37
2023-07-19T10:00:07.418Z,16.37
2023-07-19T10:01:07.449Z,16.70
2023-07-19T10:02:07.387Z,17.19
2023-07-19T10:03:07.398Z,16.54
2023-07-19T10:04:07.366Z,16.62
2023-07-19T10:05:07.404Z,16.05
2023-07-19T10:06:07.358Z,16.45
2023-07-19T10:07:07.337Z,17.11
2023-07-19T10:08:07.326Z,16.54
2023-07-19T10:09:07.319Z,15.25
2023-07-19T10:10:07.313Z,16.29
2023-07-19T10:11:07.296Z,17.51
2023-07-19T10:12:07.284Z,16.21
2023-07-19T10:13:07.309Z,15.73
2023-07-19T10:14:14.972Z,15.97
2023-07-19T10:15:08.279Z,17.59
2023-07-19T10:16:07.247Z,16.78
2023-07-19T10:17:07.257Z,17.11
2023-07-19T10:18:07.255Z,16.54
2023-07-19T10:19:07.216Z,15.89
2023-07-19T10:20:07.209Z,17.03
2023-07-19T10:21:07.229Z,16.29
2023-07-19T10:22:07.192Z,17.19
2023-07-19T10:23:07.200Z,16.21
2023-07-19T10:24:07.173Z,16.62
2023-07-19T10:25:07.166Z,16.95
2023-07-19T10:26:07.144Z,17.43
2023-07-19T10:27:07.142Z,16.95
2023-07-19T10:28:07.172Z,17.19
2023-07-19T10:29:07.137Z,16.45
2023-07-19T10:30:07.105Z,16.70
2023-07-19T10:31:28.312Z,14.44
2023-07-19T10:32:08.118Z,16.87
2023-07-19T10:33:07.189Z,18.63
2023-07-19T10:34:07.098Z,17.82
2023-07-19T10:35:07.056Z,17.19
2023-07-19T10:36:07.052Z,17.67
2023-07-19T10:37:07.035Z,17.67
2023-07-19T10:38:07.022Z,16.62
2023-07-19T10:39:07.012Z,16.95
2023-07-19T10:40:07.007Z,16.87
2023-07-19T10:41:06.993Z,17.03
2023-07-19T10:42:06.981Z,16.62
2023-07-19T10:43:07.011Z,16.70
2023-07-19T10:44:07.056Z,17.43
2023-07-19T10:45:06.974Z,16.13
2023-07-19T10:46:06.985Z,17.27
2023-07-19T10:47:06.936Z,17.03
2023-07-19T10:48:06.921Z,17.19
2023-07-19T10:49:06.946Z,17.11
2023-07-19T10:50:06.920Z,17.35
2023-07-19T10:51:06.895Z,17.19
2023-07-19T10:52:06.895Z,17.27
2023-07-19T10:53:06.878Z,16.54
2023-07-19T10:54:06.863Z,17.35
2023-07-19T10:55:27.396Z,17.43
2023-07-19T10:56:07.875Z,16.62
2023-07-19T10:57:06.836Z,17.59
2023-07-19T10:58:06.828Z,17.27
2023-07-19T10:59:06.820Z,17.35
2023-07-19T11:00:06.804Z,16.70
2023-07-19T11:01:06.889Z,17.35
2023-07-19T11:02:06.784Z,16.54
2023-07-19T11:03:06.837Z,17.75
2023-07-19T11:04:06.763Z,15.01
2023-07-19T11:05:06.757Z,17.82
2023-07-19T11:06:06.745Z,17.59
2023-07-19T11:07:06.733Z,16.37
2023-07-19T11:08:06.725Z,16.78
2023-07-19T11:09:06.730Z,17.90
2023-07-19T11:10:06.716Z,16.05
2023-07-19T11:11:06.695Z,17.27
2023-07-19T11:12:06.685Z,16.95
2023-07-19T11:13:06.672Z,17.11
2023-07-19T11:14:06.699Z,16.05
2023-07-19T11:15:06.656Z,17.43
2023-07-19T11:16:06.646Z,16.87
2023-07-19T11:17:06.688Z,17.27
2023-07-19T11:18:06.645Z,18.22
2023-07-19T11:19:06.627Z,17.27
2023-07-19T11:20:06.603Z,16.54
2023-07-19T11:21:06.594Z,17.19
2023-07-19T11:22:06.583Z,18.22
2023-07-19T11:23:06.705Z,17.67
2023-07-19T11:24:06.584Z,17.43
2023-07-19T11:25:06.559Z,16.95
2023-07-19T11:26:06.546Z,17.19
2023-07-19T11:27:06.537Z,16.95
2023-07-19T11:28:06.529Z,17.51
2023-07-19T11:29:06.523Z,17.75
2023-07-19T11:30:06.500Z,16.70
2023-07-19T11:31:06.573Z,17.27
2023-07-19T11:32:06.481Z,16.95
2023-07-19T11:33:06.674Z,17.82
2023-07-19T11:34:06.462Z,17.19
2023-07-19T11:35:06.451Z,17.51
2023-07-19T11:36:06.441Z,16.13
2023-07-19T11:37:06.437Z,17.11
2023-07-19T11:38:06.420Z,16.45
2023-07-19T11:39:06.409Z,17.35
2023-07-19T11:40:06.393Z,16.70
2023-07-19T11:41:06.386Z,16.95
2023-07-19T11:42:06.373Z,16.05
2023-07-19T11:43:06.368Z,17.27
2023-07-19T11:44:06.357Z,17.51
2023-07-19T11:45:06.350Z,17.11
2023-07-19T11:46:06.334Z,17.11
2023-07-19T11:47:06.334Z,17.19
2023-07-19T11:48:06.348Z,16.45
2023-07-19T11:49:06.340Z,15.73
2023-07-19T11:50:06.298Z,17.43
2023-07-19T11:51:06.299Z,16.45
2023-07-19T11:52:06.272Z,17.19
2023-07-19T11:53:06.266Z,17.03
2023-07-19T11:54:06.252Z,17.90
2023-07-19T11:55:06.257Z,17.03
2023-07-19T11:56:11.733Z,16.78
2023-07-19T11:57:07.257Z,17.90
2023-07-19T11:58:06.215Z,16.95
2023-07-19T11:59:06.205Z,17.27
2023-07-19T12:00:06.205Z,17.03
2023-07-19T12:01:06.195Z,18.55
2023-07-19T12:02:06.174Z,16.54
2023-07-19T12:03:06.304Z,17.59
2023-07-19T12:04:06.316Z,17.03
2023-07-19T12:05:06.215Z,17.98
2023-07-19T12:06:06.134Z,16.87
2023-07-19T12:07:06.129Z,17.35
2023-07-19T12:08:06.128Z,16.87
2023-07-19T12:09:06.100Z,17.11
2023-07-19T12:10:06.099Z,16.29
2023-07-19T12:11:06.082Z,17.27
2023-07-19T12:12:06.072Z,17.67
2023-07-19T12:13:06.066Z,16.54
2023-07-19T12:14:06.053Z,17.51
2023-07-19T12:15:06.040Z,17.90
2023-07-19T12:16:06.042Z,16.29
2023-07-19T12:17:06.058Z,16.95
2023-07-19T12:18:06.057Z,17.43
2023-07-19T12:19:05.998Z,17.98
2023-07-19T12:20:06.000Z,16.95
2023-07-19T12:21:06.015Z,16.87
2023-07-19T12:23:05.968Z,17.27
2023-07-19T12:24:05.960Z,16.45
2023-07-19T12:25:06.012Z,17.27
2023-07-19T12:26:05.934Z,17.27
2023-07-19T12:27:05.929Z,17.98
2023-07-19T12:28:05.935Z,17.03
2023-07-19T12:29:05.900Z,17.19
2023-07-19T12:30:06.133Z,17.35
2023-07-19T12:31:05.918Z,17.35
2023-07-19T12:32:05.885Z,17.35
2023-07-19T12:33:05.902Z,16.95
2023-07-19T12:34:05.864Z,17.75
2023-07-19T12:35:05.840Z,16.62
2023-07-19T12:36:05.852Z,17.51
2023-07-19T12:37:05.855Z,15.81
2023-07-19T12:38:05.809Z,17.35
2023-07-19T12:39:05.815Z,17.11
2023-07-19T12:40:05.795Z,17.67
2023-07-19T12:41:05.781Z,16.87
2023-07-19T12:42:05.772Z,18.14
2023-07-19T12:43:05.764Z,17.03
2023-07-19T12:44:05.761Z,17.03
2023-07-19T12:45:05.752Z,17.82
2023-07-19T12:46:05.803Z,17.27
2023-07-19T12:47:05.848Z,17.82
2023-07-19T12:48:05.749Z,17.19
2023-07-19T12:49:05.700Z,17.51
2023-07-19T12:50:05.707Z,16.70
2023-07-19T12:51:05.678Z,17.75
2023-07-19T12:52:05.677Z,17.27
2023-07-19T12:53:05.754Z,17.75